Time;durP1;ratioP1;P1;durP2;ratioP2;P2;SDS_P1;SDS_P2;PMS_P1;PMS_P2;Temp;Humidity;BMP_temperature;BMP_pressure;BME280_temperature;BME280_humidity;BME280_pressure;Samples;Min_cycle;Max_cycle;Signal;HPM_P1;HPM_P2
2022/01/13 00:00:58;;;;;;;27.17;18.60;;;-2.70;99.00;;;;;;5015164;28;20235;-83
2022/01/13 00:03:23;;;;;;;32.13;19.20;;;-2.70;98.90;;;;;;5016030;28;20533;-83
2022/01/13 00:05:50;;;;;;;30.83;19.50;;;-2.80;98.70;;;;;;5013652;28;20181;-83
2022/01/13 00:08:15;;;;;;;32.70;19.93;;;-2.80;98.70;;;;;;5014756;28;20176;-84
2022/01/13 00:10:41;;;;;;;36.33;19.60;;;-2.80;99.10;;;;;;5014864;28;20544;-84
2022/01/13 00:13:09;;;;;;;31.17;18.53;;;-2.80;99.10;;;;;;5014987;28;20755;-84
2022/01/13 00:15:46;;;;;;;33.17;19.60;;;-2.80;99.00;;;;;;5014548;28;20176;-84
2022/01/13 00:18:36;;;;;;;30.50;20.57;;;-2.80;98.90;;;;;;5015489;28;20192;-84
2022/01/13 00:21:17;;;;;;;31.17;18.87;;;-2.90;99.00;;;;;;5015144;28;20197;-82
2022/01/13 00:23:49;;;;;;;33.10;19.67;;;-2.90;99.10;;;;;;5014755;28;20160;-82
2022/01/13 00:26:26;;;;;;;29.47;18.77;;;-2.80;99.30;;;;;;5014445;28;20579;-83
2022/01/13 00:28:55;;;;;;;28.40;19.03;;;-2.80;99.10;;;;;;5014571;28;20179;-81
2022/01/13 00:31:28;;;;;;;34.77;20.33;;;-2.90;99.10;;;;;;5014490;28;20227;-81
2022/01/13 00:33:56;;;;;;;33.97;20.37;;;-2.80;99.00;;;;;;5013991;28;20645;-83
2022/01/13 00:36:24;;;;;;;34.93;19.47;;;-2.90;99.10;;;;;;5014554;28;20605;-83
2022/01/13 00:38:50;;;;;;;31.33;19.70;;;-2.90;99.20;;;;;;5014484;28;20179;-82
2022/01/13 00:41:16;;;;;;;33.63;20.00;;;-2.80;99.20;;;;;;5014437;28;20294;-82
2022/01/13 00:43:45;;;;;;;32.37;20.03;;;-2.80;99.10;;;;;;5014706;28;20660;-83
2022/01/13 00:46:18;;;;;;;35.37;20.70;;;-2.80;99.00;;;;;;5015372;28;20711;-82
2022/01/13 00:48:44;;;;;;;34.80;20.60;;;-2.80;99.10;;;;;;5014273;28;20183;-82
2022/01/13 00:51:10;;;;;;;32.43;20.30;;;-2.80;99.10;;;;;;5014279;28;20562;-83
2022/01/13 00:53:35;;;;;;;32.63;20.00;;;-2.90;99.20;;;;;;5013880;28;20173;-82
2022/01/13 00:56:01;;;;;;;33.13;20.30;;;-2.90;99.20;;;;;;5014101;28;20172;-82
2022/01/13 00:58:32;;;;;;;32.40;20.47;;;-3.00;99.40;;;;;;5014333;28;20180;-83
2022/01/13 01:01:02;;;;;;;30.30;19.37;;;-3.00;99.30;;;;;;4997095;28;20219;-82
2022/01/13 01:03:28;;;;;;;30.10;19.13;;;-2.90;99.30;;;;;;5014794;28;20172;-82
2022/01/13 01:05:55;;;;;;;33.77;20.30;;;-2.90;99.30;;;;;;5013839;28;20263;-82
2022/01/13 01:08:21;;;;;;;36.07;21.40;;;-2.90;99.20;;;;;;5013835;28;20173;-82
2022/01/13 01:10:49;;;;;;;36.97;20.77;;;-3.00;99.20;;;;;;5013970;28;20173;-82
2022/01/13 01:13:20;;;;;;;31.87;20.33;;;-3.00;99.40;;;;;;5003598;28;20169;-82
2022/01/13 01:15:51;;;;;;;34.83;20.33;;;-3.00;99.40;;;;;;5031759;28;20152;-82
2022/01/13 01:21:32;;;;;;;32.43;20.20;;;-3.10;99.50;;;;;;5014805;28;20643;-83
2022/01/13 01:29:17;;;;;;;32.27;19.90;;;-3.00;99.30;;;;;;5013816;28;20187;-83
2022/01/13 01:31:52;;;;;;;34.90;19.87;;;-3.00;99.30;;;;;;5013313;28;20156;-83
2022/01/13 01:37:02;;;;;;;34.23;20.20;;;-3.10;99.20;;;;;;5013849;28;20219;-80
2022/01/13 01:39:28;;;;;;;31.97;19.90;;;-3.10;99.30;;;;;;5014037;28;20179;-81
2022/01/13 01:41:56;;;;;;;33.00;20.73;;;-3.00;99.30;;;;;;5013453;28;20688;-81
2022/01/13 01:44:28;;;;;;;34.73;20.97;;;-3.10;99.30;;;;;;5013612;28;20181;-82
2022/01/13 01:46:54;;;;;;;35.23;20.53;;;-3.20;99.40;;;;;;5013238;28;20195;-81
2022/01/13 01:49:23;;;;;;;32.33;20.50;;;-3.20;99.50;;;;;;5013264;28;20184;-81
2022/01/13 01:51:53;;;;;;;32.13;19.73;;;-3.10;99.50;;;;;;4995803;28;20177;-82
2022/01/13 01:54:19;;;;;;;32.07;19.77;;;-3.10;99.40;;;;;;5013124;28;20688;-83
2022/01/13 01:56:45;;;;;;;35.83;21.17;;;-3.10;99.50;;;;;;5013319;28;20180;-83
2022/01/13 01:59:15;;;;;;;33.87;20.57;;;-3.10;99.40;;;;;;5013479;28;20183;-82
2022/01/13 02:01:42;;;;;;;33.90;21.57;;;-3.10;99.50;;;;;;5013630;28;20218;-82
2022/01/13 02:04:08;;;;;;;31.20;20.30;;;-3.10;99.50;;;;;;5013403;28;20241;-83
2022/01/13 02:06:35;;;;;;;33.10;20.50;;;-3.10;99.60;;;;;;4995499;28;20187;-83
2022/01/13 02:09:02;;;;;;;34.50;22.00;;;-3.10;99.50;;;;;;5011848;28;20223;-82
2022/01/13 02:11:30;;;;;;;34.33;20.80;;;-3.10;99.60;;;;;;5013211;28;20268;-83
2022/01/13 02:14:09;;;;;;;34.90;21.73;;;-3.20;99.60;;;;;;5013011;28;20181;-82
2022/01/13 02:19:01;;;;;;;31.20;20.70;;;-3.20;99.60;;;;;;5013583;28;20699;-81
2022/01/13 02:21:27;;;;;;;34.63;21.83;;;-3.20;99.70;;;;;;5013081;28;20344;-81
2022/01/13 02:23:56;;;;;;;34.07;21.27;;;-3.20;99.60;;;;;;5013128;28;20199;-81
2022/01/13 02:26:22;;;;;;;39.13;21.57;;;-3.20;99.50;;;;;;5012959;28;20174;-81
2022/01/13 02:28:54;;;;;;;34.00;20.47;;;-3.20;99.70;;;;;;5012879;28;20180;-82
2022/01/13 02:31:21;;;;;;;33.53;21.07;;;-3.10;99.60;;;;;;5016556;28;20621;-83
2022/01/13 02:33:46;;;;;;;34.73;20.70;;;-3.20;99.50;;;;;;5016695;28;20686;-83
2022/01/13 02:36:17;;;;;;;33.97;20.20;;;-3.20;99.40;;;;;;5016793;28;20259;-82
2022/01/13 02:38:50;;;;;;;35.40;21.57;;;-3.30;99.50;;;;;;5018761;28;20165;-82
2022/01/13 02:41:16;;;;;;;39.00;20.37;;;-3.20;99.60;;;;;;5017045;28;20246;-83
2022/01/13 02:43:44;;;;;;;36.23;19.43;;;-3.20;99.70;;;;;;4999240;28;20175;-83
2022/01/13 02:49:07;;;;;;;34.83;21.43;;;-3.20;99.40;;;;;;5016712;28;20189;-82
2022/01/13 02:51:33;;;;;;;37.03;22.10;;;-3.30;99.50;;;;;;5016406;28;20703;-81
2022/01/13 02:53:59;;;;;;;34.33;21.37;;;-3.30;99.50;;;;;;5016030;28;20169;-82
2022/01/13 02:56:27;;;;;;;36.30;22.43;;;-3.30;99.70;;;;;;5016426;28;20264;-83
2022/01/13 02:58:53;;;;;;;35.90;21.13;;;-3.30;99.80;;;;;;4999066;28;20661;-83
2022/01/13 03:01:19;;;;;;;38.43;23.00;;;-3.40;99.60;;;;;;4998971;28;20257;-82
2022/01/13 03:03:45;;;;;;;37.53;23.63;;;-3.50;99.70;;;;;;5016615;28;20266;-82
2022/01/13 03:06:14;;;;;;;36.40;23.00;;;-3.40;99.90;;;;;;5017093;28;20173;-82
2022/01/13 03:08:46;;;;;;;35.37;21.60;;;-3.40;99.90;;;;;;5029480;28;20169;-82
2022/01/13 03:11:13;;;;;;;35.93;21.63;;;-3.30;99.90;;;;;;5038840;28;20179;-82
2022/01/13 03:13:39;;;;;;;37.83;22.30;;;-3.40;99.90;;;;;;5025959;28;20176;-82
2022/01/13 03:16:10;;;;;;;36.37;22.43;;;-3.40;99.90;;;;;;5016815;28;20204;-82
2022/01/13 03:18:37;;;;;;;40.33;22.93;;;-3.50;99.90;;;;;;4998867;28;20561;-81
2022/01/13 03:21:05;;;;;;;39.97;22.00;;;-3.50;99.90;;;;;;5016254;28;20212;-82
2022/01/13 03:23:31;;;;;;;37.20;21.53;;;-3.60;99.90;;;;;;4998728;28;20578;-82
2022/01/13 03:25:57;;;;;;;34.73;20.87;;;-3.80;99.90;;;;;;5015846;28;20183;-82
2022/01/13 03:28:38;;;;;;;38.10;22.17;;;-3.80;99.90;;;;;;5016046;28;20646;-81
2022/01/13 03:31:06;;;;;;;33.77;20.90;;;-3.70;99.90;;;;;;5015606;28;20228;-82
2022/01/13 03:33:32;;;;;;;33.10;20.60;;;-3.70;99.90;;;;;;5015293;28;20262;-82
2022/01/13 03:35:59;;;;;;;34.80;21.83;;;-3.70;99.90;;;;;;5015201;28;20603;-81
2022/01/13 03:38:25;;;;;;;34.60;19.77;;;-3.70;99.90;;;;;;5015711;28;20170;-83
2022/01/13 03:40:52;;;;;;;31.80;19.87;;;-3.70;99.90;;;;;;5013962;28;20210;-82
2022/01/13 03:43:18;;;;;;;32.87;20.07;;;-3.70;99.90;;;;;;5015943;28;20190;-82
2022/01/13 03:45:45;;;;;;;32.97;19.93;;;-3.80;99.90;;;;;;5015942;28;20167;-82
2022/01/13 03:48:13;;;;;;;31.83;20.03;;;-3.70;99.90;;;;;;5015231;28;20526;-82
2022/01/13 03:50:40;;;;;;;33.57;20.47;;;-3.70;99.90;;;;;;5015172;28;20172;-82
2022/01/13 03:53:29;;;;;;;33.23;19.87;;;-3.60;99.90;;;;;;5014950;28;20181;-81
2022/01/13 03:56:17;;;;;;;32.60;19.20;;;-3.60;99.90;;;;;;5014884;28;20184;-81
2022/01/13 03:59:11;;;;;;;31.20;19.13;;;-3.60;99.90;;;;;;4997792;28;20206;-81
2022/01/13 04:01:59;;;;;;;32.37;19.03;;;-3.70;99.80;;;;;;5015277;28;20207;-81
2022/01/13 04:04:25;;;;;;;29.17;18.97;;;-3.70;99.70;;;;;;5015868;28;20154;-81
2022/01/13 04:07:23;;;;;;;35.07;20.30;;;-3.80;99.20;;;;;;5014784;28;20230;-81
2022/01/13 04:09:49;;;;;;;33.53;19.53;;;-3.90;99.30;;;;;;5014630;28;20211;-81
2022/01/13 04:12:16;;;;;;;35.73;19.93;;;-4.00;99.40;;;;;;4997179;28;20214;-81
2022/01/13 04:17:13;;;;;;;34.60;19.57;;;-4.20;99.70;;;;;;5015079;28;20179;-81
2022/01/13 04:19:40;;;;;;;32.33;18.80;;;-4.20;99.80;;;;;;5015012;28;20258;-81
2022/01/13 04:22:06;;;;;;;28.73;17.87;;;-4.20;99.90;;;;;;5013518;28;20266;-81
2022/01/13 04:24:32;;;;;;;28.70;18.87;;;-4.10;99.90;;;;;;5014845;28;20175;-82
2022/01/13 04:26:58;;;;;;;32.80;18.60;;;-4.10;99.90;;;;;;5014342;28;20221;-83
2022/01/13 04:29:34;;;;;;;33.03;19.97;;;-4.00;99.90;;;;;;5014369;28;20513;-83
2022/01/13 04:32:00;;;;;;;30.97;18.70;;;-4.00;99.90;;;;;;5014259;28;20760;-82
2022/01/13 04:34:26;;;;;;;31.93;18.77;;;-4.00;99.90;;;;;;5014060;28;20742;-82
2022/01/13 04:36:58;;;;;;;30.63;19.63;;;-3.90;99.90;;;;;;5014366;28;20167;-82
2022/01/13 04:39:24;;;;;;;32.90;19.37;;;-4.00;99.80;;;;;;5015174;28;20166;-83
2022/01/13 04:41:52;;;;;;;30.67;20.17;;;-4.00;99.90;;;;;;5014542;28;20294;-83
2022/01/13 04:44:19;;;;;;;31.50;19.63;;;-3.90;99.90;;;;;;5014766;28;20183;-83
2022/01/13 04:46:47;;;;;;;35.10;19.40;;;-3.90;99.80;;;;;;5014338;28;20178;-82
2022/01/13 04:49:13;;;;;;;31.37;19.27;;;-3.80;99.70;;;;;;5014350;28;20204;-82
2022/01/13 04:51:40;;;;;;;30.70;19.40;;;-3.80;99.60;;;;;;5013715;28;20265;-82
2022/01/13 04:54:07;;;;;;;32.33;19.20;;;-3.90;99.40;;;;;;4996637;28;20611;-81
2022/01/13 04:59:07;;;;;;;29.47;18.00;;;-4.00;99.60;;;;;;5015491;28;20167;-82
2022/01/13 05:01:33;;;;;;;32.43;18.83;;;-4.00;99.50;;;;;;5023734;28;20207;-82
2022/01/13 05:03:58;;;;;;;31.53;19.10;;;-4.10;99.50;;;;;;5032100;28;20183;-82
2022/01/13 05:06:24;;;;;;;28.30;18.73;;;-4.10;99.80;;;;;;5016229;28;20177;-82
2022/01/13 05:08:50;;;;;;;33.20;19.17;;;-4.00;99.80;;;;;;5015960;28;20182;-83
2022/01/13 05:11:18;;;;;;;28.70;17.80;;;-4.00;99.60;;;;;;5013817;28;20556;-82
2022/01/13 05:13:45;;;;;;;31.97;18.03;;;-4.00;99.70;;;;;;5014048;28;20619;-82
2022/01/13 05:16:28;;;;;;;28.83;18.10;;;-3.90;99.50;;;;;;5013699;28;20302;-81
2022/01/13 05:19:12;;;;;;;27.57;17.67;;;-3.90;99.50;;;;;;5014056;28;20167;-81
2022/01/13 05:21:55;;;;;;;25.60;17.60;;;-4.00;99.30;;;;;;5014164;28;20203;-81
2022/01/13 05:24:21;;;;;;;31.17;18.10;;;-4.10;99.40;;;;;;5014467;28;20160;-82
2022/01/13 05:26:47;;;;;;;28.20;16.13;;;-4.10;99.40;;;;;;5014160;28;20186;-83
2022/01/13 05:29:18;;;;;;;31.50;18.17;;;-4.00;99.50;;;;;;5013632;28;20252;-82
2022/01/13 05:31:43;;;;;;;31.87;17.93;;;-4.00;99.40;;;;;;5013281;28;20160;-81
2022/01/13 05:34:09;;;;;;;27.43;16.80;;;-3.90;99.20;;;;;;5013525;28;20171;-81
2022/01/13 05:36:35;;;;;;;29.40;16.07;;;-3.90;98.70;;;;;;4995935;28;20211;-81
2022/01/13 05:39:01;;;;;;;26.07;16.63;;;-4.00;98.70;;;;;;5013808;28;20170;-82
2022/01/13 05:41:27;;;;;;;27.10;16.60;;;-4.10;98.70;;;;;;5013588;28;20226;-83
2022/01/13 05:43:53;;;;;;;25.07;16.17;;;-4.00;99.00;;;;;;5013993;28;20177;-82
2022/01/13 05:46:19;;;;;;;24.90;14.73;;;-4.00;98.80;;;;;;5013652;28;20176;-82
2022/01/13 05:48:45;;;;;;;24.13;15.67;;;-4.00;98.70;;;;;;5013395;28;20175;-82
2022/01/13 05:51:10;;;;;;;25.40;14.93;;;-4.10;98.70;;;;;;4995415;28;20275;-83
2022/01/13 05:53:36;;;;;;;25.70;16.03;;;-4.10;98.80;;;;;;5013413;28;20177;-83
2022/01/13 05:56:02;;;;;;;21.90;14.13;;;-4.10;98.90;;;;;;5012852;28;20177;-81
2022/01/13 05:58:28;;;;;;;30.23;15.13;;;-4.10;98.60;;;;;;5013561;28;20176;-83
2022/01/13 06:00:54;;;;;;;24.30;15.63;;;-4.20;98.20;;;;;;5013419;28;20545;-83
2022/01/13 06:03:20;;;;;;;27.13;15.87;;;-4.20;98.20;;;;;;5014195;28;20175;-82
2022/01/13 06:05:46;;;;;;;24.53;15.30;;;-4.30;98.40;;;;;;5017415;28;20171;-83
2022/01/13 06:08:12;;;;;;;26.73;14.93;;;-4.30;98.60;;;;;;5017155;28;20266;-84
2022/01/13 06:10:42;;;;;;;23.00;15.23;;;-4.30;98.50;;;;;;5017032;28;20255;-83
2022/01/13 06:13:08;;;;;;;27.23;15.13;;;-4.30;98.40;;;;;;5017015;28;20234;-84
2022/01/13 06:15:37;;;;;;;23.20;13.93;;;-4.30;98.70;;;;;;5016670;28;20631;-84
2022/01/13 06:18:03;;;;;;;25.53;13.73;;;-4.30;98.60;;;;;;4999543;28;20192;-83
2022/01/13 06:20:29;;;;;;;23.50;13.67;;;-4.40;98.40;;;;;;5017012;28;20198;-84
2022/01/13 06:22:57;;;;;;;21.27;13.73;;;-4.30;98.50;;;;;;5017130;28;20266;-84
2022/01/13 06:25:23;;;;;;;26.30;14.07;;;-4.30;98.50;;;;;;5016941;28;20169;-83
2022/01/13 06:27:49;;;;;;;21.37;13.53;;;-4.30;98.40;;;;;;4998907;28;20180;-84
2022/01/13 06:30:16;;;;;;;25.87;14.30;;;-4.20;98.60;;;;;;5016701;28;20225;-83
2022/01/13 06:32:46;;;;;;;21.13;13.60;;;-4.20;98.40;;;;;;5016803;28;20652;-84
2022/01/13 06:35:13;;;;;;;23.87;13.67;;;-4.10;98.40;;;;;;5016540;28;20496;-83
2022/01/13 06:37:41;;;;;;;24.73;14.73;;;-4.00;98.50;;;;;;5016825;28;20171;-83
2022/01/13 06:40:08;;;;;;;29.40;15.80;;;-4.00;98.50;;;;;;5016255;28;20171;-84
2022/01/13 06:42:34;;;;;;;27.20;14.87;;;-3.90;98.60;;;;;;5017195;28;20171;-83
2022/01/13 06:45:00;;;;;;;23.53;14.73;;;-4.00;98.40;;;;;;5017151;28;20667;-84
2022/01/13 06:47:26;;;;;;;25.73;15.60;;;-4.00;98.60;;;;;;5016851;28;20206;-83
2022/01/13 06:49:52;;;;;;;26.50;15.33;;;-4.00;98.60;;;;;;5016734;28;20230;-83
2022/01/13 06:52:18;;;;;;;24.63;15.50;;;-4.00;98.60;;;;;;5017498;28;20194;-84
2022/01/13 06:54:44;;;;;;;23.50;14.27;;;-4.00;98.80;;;;;;5027405;28;20186;-83
2022/01/13 06:57:10;;;;;;;29.10;17.47;;;-4.00;98.70;;;;;;5019959;28;20281;-83
2022/01/13 06:59:36;;;;;;;32.50;17.80;;;-3.90;98.70;;;;;;5029767;28;20163;-84
2022/01/13 07:02:02;;;;;;;33.67;18.57;;;-3.90;98.50;;;;;;5017738;28;20309;-82
2022/01/13 07:04:28;;;;;;;35.47;20.40;;;-3.80;98.60;;;;;;5016958;28;20187;-82
2022/01/13 07:06:55;;;;;;;37.20;21.63;;;-3.70;98.50;;;;;;5016752;28;20207;-83
2022/01/13 07:09:21;;;;;;;41.60;24.50;;;-3.70;98.60;;;;;;5016958;28;20169;-83
2022/01/13 07:11:47;;;;;;;41.10;25.03;;;-3.70;98.50;;;;;;5018901;28;20903;-83
2022/01/13 07:14:14;;;;;;;40.80;25.30;;;-3.80;98.70;;;;;;5020501;28;20171;-83
2022/01/13 07:16:41;;;;;;;42.03;24.50;;;-3.70;98.80;;;;;;5027132;28;20171;-83
2022/01/13 07:19:10;;;;;;;43.87;23.43;;;-3.70;98.70;;;;;;5012853;28;20361;-83
2022/01/13 07:21:39;;;;;;;39.03;22.40;;;-3.60;98.80;;;;;;5012044;28;20299;-83
2022/01/13 07:24:05;;;;;;;42.00;21.93;;;-3.70;98.70;;;;;;5016834;28;20679;-83
2022/01/13 07:26:31;;;;;;;39.00;22.27;;;-3.60;98.80;;;;;;5017447;28;20167;-83
2022/01/13 07:28:57;;;;;;;36.53;22.90;;;-3.70;98.80;;;;;;5016928;28;20199;-84
2022/01/13 07:31:22;;;;;;;39.13;22.50;;;-3.70;98.90;;;;;;5017797;28;20650;-84
2022/01/13 07:33:48;;;;;;;37.43;22.17;;;-3.70;98.80;;;;;;5015406;28;20765;-84
2022/01/13 07:36:14;;;;;;;35.87;21.30;;;-3.60;98.80;;;;;;5015853;28;20198;-84
2022/01/13 07:38:41;;;;;;;35.37;21.73;;;-3.60;98.70;;;;;;5016877;28;20181;-84
2022/01/13 07:41:07;;;;;;;37.07;23.17;;;-3.50;98.80;;;;;;5025666;28;20277;-84
2022/01/13 07:43:33;;;;;;;39.37;22.07;;;-3.60;98.60;;;;;;5036784;28;20569;-83
2022/01/13 07:45:59;;;;;;;35.97;21.87;;;-3.60;98.60;;;;;;5036583;28;20514;-83
2022/01/13 07:48:24;;;;;;;36.23;22.80;;;-3.60;98.70;;;;;;5035306;28;20231;-83
2022/01/13 07:50:51;;;;;;;34.23;22.00;;;-3.40;98.70;;;;;;5038988;28;20178;-83
2022/01/13 07:53:18;;;;;;;39.47;22.37;;;-3.40;98.70;;;;;;5037175;28;20254;-82
2022/01/13 07:55:43;;;;;;;42.22;26.05;;;-3.40;98.70;;;;;;5036275;28;20448;-82
2022/01/13 07:58:10;;;;;;;36.37;23.40;;;-3.30;98.70;;;;;;5019109;28;20643;-83
2022/01/13 08:00:36;;;;;;;35.80;22.80;;;-3.40;98.80;;;;;;5020934;28;20282;-83
2022/01/13 08:03:02;;;;;;;42.80;22.93;;;-3.30;98.60;;;;;;5035839;28;20167;-83
2022/01/13 08:05:28;;;;;;;38.10;22.63;;;-3.20;98.70;;;;;;5035831;28;20171;-84
2022/01/13 08:07:54;;;;;;;37.83;23.00;;;-3.20;98.60;;;;;;5034703;28;20627;-84
2022/01/13 08:10:20;;;;;;;37.20;23.57;;;-3.30;98.70;;;;;;5035535;28;20187;-85
2022/01/13 08:12:46;;;;;;;39.63;23.70;;;-3.20;98.70;;;;;;5017365;28;20175;-84
2022/01/13 08:15:15;;;;;;;39.30;23.50;;;-3.10;98.60;;;;;;5017253;28;20218;-83
2022/01/13 08:20:33;;;;;;;36.27;22.67;;;-3.10;98.60;;;;;;5036542;28;20211;-84
2022/01/13 08:22:59;;;;;;;33.70;22.13;;;-3.00;98.70;;;;;;5035180;28;20531;-83
2022/01/13 08:25:25;;;;;;;37.73;23.13;;;-2.90;98.60;;;;;;5034862;28;20258;-84
2022/01/13 08:27:53;;;;;;;39.03;23.30;;;-2.80;98.60;;;;;;5033176;28;20249;-83
2022/01/13 08:30:19;;;;;;;38.93;23.53;;;-2.70;98.30;;;;;;5039561;28;20178;-92
2022/01/13 08:32:45;;;;;;;41.03;23.90;;;-2.60;98.30;;;;;;5042830;28;20279;-90
2022/01/13 08:35:11;;;;;;;37.37;23.20;;;-2.60;98.10;;;;;;5036459;28;20207;-84
2022/01/13 08:37:37;;;;;;;35.53;23.20;;;-2.50;98.30;;;;;;5034964;28;20243;-83
2022/01/13 08:40:06;;;;;;;42.00;23.83;;;-2.50;98.40;;;;;;5035117;28;20179;-83
2022/01/13 08:42:33;;;;;;;41.43;23.73;;;-2.30;98.00;;;;;;5037267;28;20199;-84
2022/01/13 08:44:59;;;;;;;39.37;23.97;;;-2.30;97.80;;;;;;5037588;28;20179;-83
2022/01/13 08:47:25;;;;;;;39.43;23.77;;;-2.30;97.80;;;;;;5037122;28;20179;-83
2022/01/13 08:49:51;;;;;;;45.10;25.60;;;-2.30;98.00;;;;;;5029966;28;20188;-83
2022/01/13 08:52:17;;;;;;;45.97;25.67;;;-2.20;97.90;;;;;;5044572;28;20181;-83
2022/01/13 08:54:46;;;;;;;41.10;26.20;;;-2.10;98.20;;;;;;5049576;28;20177;-83
2022/01/13 08:57:12;;;;;;;40.47;25.50;;;-2.20;98.30;;;;;;5040193;28;20187;-86
2022/01/13 08:59:38;;;;;;;47.90;26.97;;;-2.20;98.40;;;;;;5034382;28;20177;-83
2022/01/13 09:02:04;;;;;;;45.27;26.87;;;-2.10;98.40;;;;;;5034042;28;20656;-83
2022/01/13 09:04:30;;;;;;;37.77;24.30;;;-2.10;98.20;;;;;;5034294;28;20263;-84
2022/01/13 09:06:56;;;;;;;39.60;24.60;;;-2.00;98.00;;;;;;5034144;28;20183;-84
2022/01/13 09:09:22;;;;;;;39.30;24.27;;;-1.90;97.80;;;;;;5016645;28;20183;-84
2022/01/13 09:11:48;;;;;;;37.97;24.63;;;-1.90;97.70;;;;;;5033798;28;20600;-84
2022/01/13 09:14:16;;;;;;;38.73;25.13;;;-1.90;97.70;;;;;;5033871;28;20259;-83
2022/01/13 09:16:43;;;;;;;37.67;24.47;;;-1.80;97.60;;;;;;5016581;28;20259;-82
2022/01/13 09:19:12;;;;;;;43.27;23.40;;;-1.70;97.60;;;;;;5033439;28;20176;-84
2022/01/13 09:21:43;;;;;;;44.97;23.83;;;-1.70;97.50;;;;;;5033705;28;20354;-83
2022/01/13 09:24:15;;;;;;;37.40;23.67;;;-1.60;97.80;;;;;;5034522;28;20161;-84
2022/01/13 09:26:41;;;;;;;40.93;24.17;;;-1.50;97.50;;;;;;5034796;28;20535;-83
2022/01/13 09:29:07;;;;;;;42.97;24.57;;;-1.50;97.50;;;;;;5034073;28;20519;-83
2022/01/13 09:31:35;;;;;;;41.30;25.17;;;-1.50;97.40;;;;;;5033753;28;20176;-83
2022/01/13 09:34:02;;;;;;;45.33;25.37;;;-1.30;97.50;;;;;;5016919;28;20527;-83
2022/01/13 09:36:31;;;;;;;38.70;24.67;;;-1.20;97.50;;;;;;5034288;28;20578;-83
2022/01/13 09:38:59;;;;;;;36.53;23.17;;;-1.10;97.40;;;;;;5033935;28;20165;-83
2022/01/13 09:41:28;;;;;;;40.80;24.60;;;-1.00;97.30;;;;;;5033685;28;20248;-83
2022/01/13 09:43:55;;;;;;;43.00;24.17;;;-1.00;97.10;;;;;;5033113;28;20624;-82
2022/01/13 09:46:22;;;;;;;38.93;24.07;;;-0.90;97.10;;;;;;5032923;28;20538;-83
2022/01/13 09:48:50;;;;;;;37.33;23.07;;;-0.90;97.00;;;;;;5032764;28;20171;-82
2022/01/13 09:51:15;;;;;;;35.43;23.20;;;-0.90;96.90;;;;;;5033428;28;20172;-82
2022/01/13 09:53:42;;;;;;;36.37;23.27;;;-0.90;96.90;;;;;;5033025;28;20184;-82
2022/01/13 09:56:08;;;;;;;38.63;24.13;;;-0.70;97.00;;;;;;5033332;28;20180;-82
2022/01/13 09:58:34;;;;;;;43.00;21.87;;;-0.80;96.60;;;;;;5036916;28;20647;-81
2022/01/13 10:01:00;;;;;;;38.43;21.53;;;-0.70;96.60;;;;;;5015288;28;20219;-82
2022/01/13 10:03:27;;;;;;;35.47;22.57;;;-0.70;96.70;;;;;;5033432;28;20189;-82
2022/01/13 10:06:01;;;;;;;35.00;21.80;;;-0.60;96.70;;;;;;5033956;28;20845;-82
2022/01/13 10:08:58;;;;;;;39.50;22.30;;;-0.50;96.70;;;;;;5032897;28;20275;-83
2022/01/13 10:11:36;;;;;;;42.57;23.00;;;-0.50;96.50;;;;;;5032563;28;20176;-82
2022/01/13 10:16:56;;;;;;;31.93;19.10;;;-0.40;95.70;;;;;;5032382;28;20208;-83
2022/01/13 10:19:33;;;;;;;32.10;19.73;;;-0.40;95.50;;;;;;5033684;28;20202;-83
2022/01/13 10:22:19;;;;;;;26.37;16.83;;;-0.40;95.60;;;;;;5032573;28;20207;-83
2022/01/13 10:24:50;;;;;;;25.90;16.10;;;-0.10;99.50;;;;;;5034334;28;20154;-82
2022/01/13 10:27:28;;;;;;;26.77;15.50;;;0.20;99.00;;;;;;5034619;28;20160;-83
2022/01/13 10:29:59;;;;;;;24.97;15.97;;;0.40;97.30;;;;;;5034306;28;20218;-82
2022/01/13 10:32:31;;;;;;;30.20;17.27;;;0.60;94.40;;;;;;5033303;28;20271;-82
2022/01/13 10:35:00;;;;;;;31.80;17.77;;;0.60;93.90;;;;;;5035636;28;20219;-82
2022/01/13 10:37:37;;;;;;;30.63;17.87;;;0.50;93.60;;;;;;5039966;28;20267;-81
2022/01/13 10:40:11;;;;;;;25.53;16.37;;;0.40;93.70;;;;;;5049896;28;20159;-81
2022/01/13 10:45:22;;;;;;;24.23;15.67;;;0.30;94.20;;;;;;5034578;28;20202;-80
2022/01/13 10:47:55;;;;;;;23.87;14.67;;;0.40;93.90;;;;;;5033287;28;20178;-84
2022/01/13 10:50:40;;;;;;;25.20;15.13;;;0.50;93.30;;;;;;5034261;28;20229;-80
2022/01/13 10:53:11;;;;;;;24.13;14.53;;;0.60;94.20;;;;;;5039522;28;20162;-84
2022/01/13 10:55:49;;;;;;;18.13;13.53;;;0.70;94.40;;;;;;5039113;28;20179;-84
2022/01/13 10:58:17;;;;;;;19.90;14.63;;;0.70;94.20;;;;;;5036259;28;20157;-83
2022/01/13 11:00:45;;;;;;;22.27;14.50;;;0.80;93.90;;;;;;5036043;28;20209;-82
2022/01/13 11:03:12;;;;;;;24.80;13.90;;;0.90;93.70;;;;;;5035941;28;20196;-82
2022/01/13 11:05:43;;;;;;;21.53;14.50;;;1.00;93.40;;;;;;5036637;28;20183;-82
2022/01/13 11:08:09;;;;;;;22.63;13.87;;;1.00;92.90;;;;;;5036616;28;20193;-82
2022/01/13 11:10:37;;;;;;;23.13;13.67;;;1.00;93.30;;;;;;5035278;28;20227;-80
2022/01/13 11:13:05;;;;;;;21.97;13.10;;;1.10;92.80;;;;;;5035362;28;20588;-83
2022/01/13 11:15:31;;;;;;;20.30;12.73;;;1.20;93.70;;;;;;5036094;28;20567;-83
2022/01/13 11:17:59;;;;;;;22.07;14.57;;;1.30;93.70;;;;;;5035556;28;20289;-83
2022/01/13 11:20:27;;;;;;;24.60;14.70;;;1.40;92.90;;;;;;5035550;28;20198;-82
2022/01/13 11:22:55;;;;;;;24.23;16.23;;;1.60;93.90;;;;;;5035502;28;20263;-83
2022/01/13 11:25:24;;;;;;;38.60;16.37;;;1.70;93.20;;;;;;5035557;28;20211;-83
2022/01/13 11:27:52;;;;;;;26.70;17.27;;;1.70;93.40;;;;;;5017462;28;20178;-83
2022/01/13 11:30:21;;;;;;;29.00;16.80;;;1.80;93.60;;;;;;5035596;28;20175;-81
2022/01/13 11:32:48;;;;;;;24.03;16.80;;;1.90;93.70;;;;;;5017612;28;20227;-82
2022/01/13 11:35:45;;;;;;;28.47;16.43;;;2.00;94.00;;;;;;5017093;28;20194;-83
2022/01/13 11:38:13;;;;;;;30.30;17.07;;;2.10;93.70;;;;;;5009760;28;20194;-83
2022/01/13 11:41:04;;;;;;;28.30;17.07;;;2.10;93.80;;;;;;5035245;28;20202;-83
2022/01/13 11:43:34;;;;;;;27.77;15.60;;;2.10;94.10;;;;;;5034744;28;20196;-82
2022/01/13 11:46:21;;;;;;;28.03;15.87;;;2.20;94.30;;;;;;5017504;28;20172;-82
2022/01/13 11:49:08;;;;;;;26.83;15.83;;;2.30;93.70;;;;;;5035233;28;20217;-81
2022/01/13 11:51:59;;;;;;;31.63;14.80;;;2.30;93.60;;;;;;5035525;28;20167;-81
2022/01/13 11:54:34;;;;;;;21.40;13.20;;;2.30;93.50;;;;;;5034439;28;20178;-82
2022/01/13 11:57:20;;;;;;;23.67;13.03;;;2.40;93.10;;;;;;5034716;28;20164;-84
2022/01/13 11:59:59;;;;;;;22.00;13.27;;;2.50;93.00;;;;;;5035025;28;20254;-82
2022/01/13 12:02:30;;;;;;;25.43;12.37;;;2.60;93.10;;;;;;5018281;28;20545;-83
2022/01/13 12:05:06;;;;;;;19.43;11.10;;;2.50;92.70;;;;;;5036292;28;20198;-83
2022/01/13 12:07:42;;;;;;;20.50;11.80;;;2.60;92.40;;;;;;5037252;28;20188;-83
2022/01/13 12:10:09;;;;;;;18.57;9.83;;;2.70;91.90;;;;;;5037963;28;20201;-83
2022/01/13 12:12:37;;;;;;;12.40;9.20;;;2.70;91.60;;;;;;5036837;28;20183;-81
2022/01/13 12:15:23;;;;;;;14.50;9.60;;;2.80;91.50;;;;;;5036465;28;20175;-82
2022/01/13 12:18:03;;;;;;;13.77;9.20;;;2.80;91.00;;;;;;5034984;28;20197;-83
2022/01/13 12:20:50;;;;;;;16.97;10.20;;;2.90;90.80;;;;;;5035732;28;20215;-84
2022/01/13 12:23:37;;;;;;;17.50;10.13;;;3.00;94.00;;;;;;5035150;28;20168;-83
2022/01/13 12:26:23;;;;;;;17.60;9.40;;;3.20;93.90;;;;;;5018274;28;20251;-84
2022/01/13 12:29:08;;;;;;;27.90;14.70;;;3.20;92.30;;;;;;5026480;28;20168;-83
2022/01/13 12:31:33;;;;;;;16.40;10.77;;;3.30;92.20;;;;;;5048986;28;20176;-81
2022/01/13 12:33:59;;;;;;;14.40;8.77;;;3.40;91.80;;;;;;5035729;28;20168;-82
2022/01/13 12:36:25;;;;;;;11.30;8.37;;;3.50;91.30;;;;;;5035369;28;20169;-82
2022/01/13 12:39:00;;;;;;;11.67;8.47;;;3.50;90.90;;;;;;5035149;28;20172;-82
2022/01/13 12:41:28;;;;;;;13.57;8.17;;;3.60;90.40;;;;;;5034334;28;20208;-81
2022/01/13 12:44:12;;;;;;;9.67;7.50;;;3.70;90.60;;;;;;5035540;28;20667;-84
2022/01/13 12:46:40;;;;;;;10.80;6.73;;;3.70;88.60;;;;;;5034618;28;20172;-83
2022/01/13 12:49:07;;;;;;;11.10;6.83;;;3.70;88.40;;;;;;5033784;28;20185;-82
2022/01/13 12:51:33;;;;;;;12.70;6.97;;;3.80;84.80;;;;;;5033852;28;20225;-82
2022/01/13 12:53:59;;;;;;;12.70;6.70;;;3.80;88.30;;;;;;5033919;28;20173;-82
2022/01/13 12:56:28;;;;;;;9.20;6.30;;;3.80;88.30;;;;;;5033832;28;20261;-82
2022/01/13 12:59:00;;;;;;;7.93;6.27;;;3.90;86.40;;;;;;5033811;28;20524;-82
2022/01/13 13:01:29;;;;;;;8.13;5.97;;;4.00;85.50;;;;;;5033888;28;20217;-84
2022/01/13 13:04:09;;;;;;;7.03;5.67;;;4.00;86.30;;;;;;5033831;28;20678;-83
2022/01/13 13:06:37;;;;;;;11.00;5.60;;;4.10;84.20;;;;;;5034046;28;20652;-83
2022/01/13 13:09:07;;;;;;;8.33;5.87;;;4.00;85.50;;;;;;5033792;28;20308;-81
2022/01/13 13:11:35;;;;;;;8.37;5.87;;;4.10;86.10;;;;;;5033797;28;20171;-83